Time;durP1;ratioP1;P1;durP2;ratioP2;P2;SDS_P1;SDS_P2;PMS_P1;PMS_P2;Temp;Humidity;BMP_temperature;BMP_pressure;BME280_temperature;BME280_humidity;BME280_pressure;Samples;Min_cycle;Max_cycle;Signal;HPM_P1;HPM_P2
2023/03/09 00:02:26;;;;;;;17.10;13.10;;;4.60;99.90;;;;;;5076523;28;20181;-86
2023/03/09 00:04:53;;;;;;;17.37;13.07;;;4.80;99.90;;;;;;5076091;28;20220;-88
2023/03/09 00:07:23;;;;;;;18.77;14.10;;;4.80;99.90;;;;;;5077882;28;20188;-88
2023/03/09 00:09:52;;;;;;;16.83;13.27;;;4.90;99.90;;;;;;5067100;28;20653;-89
2023/03/09 00:12:48;;;;;;;15.77;12.07;;;5.00;99.90;;;;;;5068295;28;20173;-88
2023/03/09 00:15:14;;;;;;;17.40;13.10;;;5.20;99.90;;;;;;5050962;28;20208;-88
2023/03/09 00:17:44;;;;;;;14.77;11.50;;;5.20;99.90;;;;;;5043403;28;20189;-88
2023/03/09 00:20:17;;;;;;;18.67;12.43;;;4.90;99.90;;;;;;5036596;28;20174;-87
2023/03/09 00:22:47;;;;;;;18.67;13.87;;;4.70;99.90;;;;;;5035492;28;20188;-88
2023/03/09 00:25:15;;;;;;;18.40;14.23;;;4.70;99.90;;;;;;5035878;28;20225;-89
2023/03/09 00:27:42;;;;;;;18.23;13.43;;;4.90;99.90;;;;;;5036183;28;20165;-89
2023/03/09 00:30:09;;;;;;;19.90;15.23;;;5.10;99.90;;;;;;5034103;28;20181;-88
2023/03/09 00:32:35;;;;;;;18.80;14.37;;;5.30;99.90;;;;;;5034464;28;20685;-88
2023/03/09 00:35:01;;;;;;;19.17;14.80;;;5.40;99.90;;;;;;5034385;28;20300;-88
2023/03/09 00:37:26;;;;;;;19.53;13.67;;;5.30;99.90;;;;;;5042010;28;20185;-88
2023/03/09 00:39:54;;;;;;;19.17;14.30;;;5.20;99.90;;;;;;5035599;28;20170;-88
2023/03/09 00:42:20;;;;;;;19.67;13.43;;;4.80;99.90;;;;;;5034804;28;20653;-88
2023/03/09 00:44:46;;;;;;;20.13;14.33;;;4.70;99.90;;;;;;5036355;28;20182;-87
2023/03/09 00:47:12;;;;;;;19.67;13.60;;;4.70;99.90;;;;;;5034828;28;20232;-88
2023/03/09 00:49:38;;;;;;;21.60;15.93;;;4.60;99.90;;;;;;5035034;28;20181;-88
2023/03/09 00:52:04;;;;;;;22.13;14.70;;;4.60;99.90;;;;;;5034212;28;20197;-88
2023/03/09 00:54:30;;;;;;;20.97;15.73;;;4.60;99.90;;;;;;5034138;28;20263;-88
2023/03/09 00:56:56;;;;;;;21.60;15.53;;;4.60;99.90;;;;;;5033402;28;20626;-88
2023/03/09 00:59:23;;;;;;;25.20;17.10;;;4.50;99.90;;;;;;5034139;28;20182;-89
2023/03/09 01:01:49;;;;;;;25.73;17.73;;;4.40;99.90;;;;;;5034476;28;20177;-89
2023/03/09 01:04:14;;;;;;;28.50;19.10;;;4.50;99.90;;;;;;5034989;28;20205;-88
2023/03/09 01:06:40;;;;;;;30.97;19.47;;;4.60;99.90;;;;;;5034515;28;20633;-88
2023/03/09 01:09:06;;;;;;;27.20;18.33;;;4.50;99.90;;;;;;5034908;28;20223;-87
2023/03/09 01:11:31;;;;;;;29.30;18.93;;;4.30;99.90;;;;;;5033871;28;20193;-88
2023/03/09 01:13:59;;;;;;;30.73;20.80;;;4.20;99.90;;;;;;5033629;28;20255;-88
2023/03/09 01:16:25;;;;;;;31.53;20.00;;;4.20;99.90;;;;;;5031752;28;20180;-89
2023/03/09 01:18:50;;;;;;;33.33;20.03;;;4.30;99.90;;;;;;5053392;28;20169;-89
2023/03/09 01:21:17;;;;;;;34.43;20.47;;;4.30;99.90;;;;;;5055348;28;20179;-89
2023/03/09 01:23:43;;;;;;;35.40;20.73;;;4.20;99.90;;;;;;5053872;28;20177;-89
2023/03/09 01:26:08;;;;;;;35.23;20.20;;;4.10;99.90;;;;;;5054331;28;20255;-89
2023/03/09 01:28:35;;;;;;;35.57;21.47;;;4.20;99.90;;;;;;5053890;28;20211;-88
2023/03/09 01:31:15;;;;;;;33.63;20.80;;;4.30;99.90;;;;;;5056035;28;20173;-89
2023/03/09 01:33:42;;;;;;;37.27;22.97;;;4.20;99.90;;;;;;5077623;28;20212;-88
2023/03/09 01:36:12;;;;;;;38.07;22.33;;;4.20;99.90;;;;;;5071213;28;20184;-88
2023/03/09 01:38:37;;;;;;;36.80;22.23;;;4.30;99.90;;;;;;5062942;28;20669;-89
2023/03/09 01:41:03;;;;;;;36.97;22.10;;;4.20;99.90;;;;;;5058286;28;20211;-89
2023/03/09 01:43:43;;;;;;;37.23;22.10;;;4.20;99.90;;;;;;5053617;28;20637;-89
2023/03/09 01:46:24;;;;;;;36.57;21.53;;;4.20;99.90;;;;;;5054317;28;20169;-89
2023/03/09 01:49:01;;;;;;;41.00;23.57;;;4.30;99.90;;;;;;5055361;28;20173;-87
2023/03/09 01:51:33;;;;;;;37.80;23.07;;;4.30;99.90;;;;;;5061155;28;20204;-88
2023/03/09 01:54:00;;;;;;;39.37;23.70;;;4.50;99.90;;;;;;5063798;28;20695;-87
2023/03/09 01:56:28;;;;;;;36.33;22.03;;;4.60;99.90;;;;;;5058157;28;20249;-88
2023/03/09 01:58:55;;;;;;;42.07;23.87;;;4.60;99.90;;;;;;5066977;28;20169;-89
2023/03/09 02:01:21;;;;;;;41.00;24.87;;;4.70;99.90;;;;;;5075707;28;20166;-87
2023/03/09 02:03:51;;;;;;;40.27;23.43;;;4.60;99.90;;;;;;5067458;28;20193;-88
2023/03/09 02:06:20;;;;;;;39.60;24.47;;;4.60;99.90;;;;;;5060463;28;20543;-89
2023/03/09 02:09:00;;;;;;;41.37;24.97;;;4.50;99.90;;;;;;5057149;28;20177;-88
2023/03/09 02:11:26;;;;;;;43.83;25.00;;;4.60;99.90;;;;;;5055140;28;20255;-89
2023/03/09 02:13:53;;;;;;;41.70;24.33;;;4.70;99.90;;;;;;5053324;28;20348;-88
2023/03/09 02:16:20;;;;;;;45.00;25.90;;;4.40;99.90;;;;;;5043900;28;20665;-88
2023/03/09 02:18:46;;;;;;;39.23;24.27;;;4.50;99.90;;;;;;5036720;28;20192;-87
2023/03/09 02:21:34;;;;;;;41.97;24.97;;;4.60;99.90;;;;;;5037346;28;20352;-88
2023/03/09 02:24:31;;;;;;;40.53;23.90;;;4.70;99.90;;;;;;5035953;28;20174;-90
2023/03/09 02:26:59;;;;;;;42.17;24.83;;;4.70;99.90;;;;;;5037100;28;20178;-89
2023/03/09 02:29:25;;;;;;;41.00;23.43;;;4.60;99.90;;;;;;5037242;28;20228;-87
2023/03/09 02:31:51;;;;;;;43.30;24.87;;;4.50;99.90;;;;;;5038692;28;20264;-89
2023/03/09 02:34:16;;;;;;;36.83;24.37;;;4.60;99.90;;;;;;5036740;28;20267;-88
2023/03/09 02:36:42;;;;;;;43.27;23.50;;;4.50;99.90;;;;;;5036479;28;20331;-87
2023/03/09 02:39:40;;;;;;;40.30;23.50;;;4.40;99.90;;;;;;5045032;28;20188;-88
2023/03/09 02:42:06;;;;;;;38.27;23.10;;;4.40;99.90;;;;;;5052599;28;20186;-87
2023/03/09 02:44:34;;;;;;;39.13;23.87;;;4.30;99.90;;;;;;5045187;28;20679;-88
2023/03/09 02:47:06;;;;;;;38.43;22.47;;;4.50;99.90;;;;;;5053383;28;20173;-88
2023/03/09 02:49:33;;;;;;;40.50;22.93;;;4.40;99.90;;;;;;5054468;28;20178;-87
2023/03/09 02:51:59;;;;;;;39.97;22.97;;;4.40;99.90;;;;;;5041033;28;20182;-88
2023/03/09 02:54:47;;;;;;;42.07;23.17;;;4.50;99.90;;;;;;5020918;28;20220;-89
2023/03/09 02:57:13;;;;;;;40.53;22.67;;;4.60;99.90;;;;;;5036768;28;20177;-89
2023/03/09 02:59:39;;;;;;;39.93;23.47;;;4.60;99.90;;;;;;5036374;28;20271;-88
2023/03/09 03:02:05;;;;;;;42.37;23.97;;;4.80;99.90;;;;;;5040270;28;20220;-88
2023/03/09 03:04:31;;;;;;;39.50;23.57;;;4.60;99.90;;;;;;5049913;28;20220;-88
2023/03/09 03:06:57;;;;;;;40.37;23.93;;;4.70;99.90;;;;;;5053944;28;20181;-88
2023/03/09 03:09:24;;;;;;;39.33;23.47;;;4.50;99.90;;;;;;5054700;28;20162;-88
2023/03/09 03:11:50;;;;;;;37.80;23.23;;;4.50;99.90;;;;;;5057107;28;20178;-89
2023/03/09 03:14:17;;;;;;;39.13;21.97;;;4.40;99.90;;;;;;5039755;28;20715;-88
2023/03/09 03:16:43;;;;;;;43.00;24.73;;;4.40;99.90;;;;;;5047025;28;20177;-88
2023/03/09 03:19:09;;;;;;;43.63;24.77;;;4.40;99.90;;;;;;5056027;28;20188;-88
2023/03/09 03:21:35;;;;;;;41.50;24.17;;;4.50;99.90;;;;;;5064273;28;20196;-89
2023/03/09 03:24:00;;;;;;;38.27;23.40;;;4.40;99.90;;;;;;5075635;28;20192;-87
2023/03/09 03:26:26;;;;;;;40.33;23.37;;;4.40;99.90;;;;;;5076482;28;20164;-89
2023/03/09 03:28:52;;;;;;;41.43;24.20;;;4.20;99.90;;;;;;5079811;28;20236;-87
2023/03/09 03:31:20;;;;;;;39.00;22.90;;;4.30;99.90;;;;;;5071490;28;20204;-88
2023/03/09 03:33:47;;;;;;;38.33;21.87;;;4.20;99.90;;;;;;5059890;28;20207;-88
2023/03/09 03:36:13;;;;;;;41.57;24.03;;;4.20;99.90;;;;;;5058036;28;20258;-87
2023/03/09 03:38:41;;;;;;;34.83;21.20;;;4.40;99.90;;;;;;5056713;28;20188;-87
2023/03/09 03:41:09;;;;;;;39.07;23.40;;;4.40;99.90;;;;;;5056402;28;20215;-87
2023/03/09 03:43:34;;;;;;;37.80;22.30;;;4.50;99.90;;;;;;5055988;28;20246;-87
2023/03/09 03:46:00;;;;;;;37.50;22.97;;;4.60;99.90;;;;;;5055239;28;20169;-89
2023/03/09 03:48:26;;;;;;;35.50;21.80;;;4.60;99.90;;;;;;5055931;28;20185;-89
2023/03/09 03:50:51;;;;;;;35.57;21.37;;;4.60;99.90;;;;;;5055157;28;20180;-89
2023/03/09 03:53:17;;;;;;;32.20;19.87;;;4.70;99.90;;;;;;5054653;28;20187;-90
2023/03/09 03:55:44;;;;;;;31.27;18.00;;;4.70;99.90;;;;;;5054864;28;20268;-87
2023/03/09 03:58:09;;;;;;;28.87;18.80;;;4.70;99.90;;;;;;5055341;28;20196;-88
2023/03/09 04:00:35;;;;;;;26.77;16.50;;;4.80;99.90;;;;;;5063287;28;20629;-88
2023/03/09 04:03:02;;;;;;;27.07;15.73;;;4.90;99.90;;;;;;5074946;28;20566;-89
2023/03/09 04:05:28;;;;;;;27.87;17.47;;;4.90;99.90;;;;;;5075946;28;20266;-89
2023/03/09 04:07:54;;;;;;;28.57;17.50;;;5.00;99.90;;;;;;5076413;28;20744;-89
2023/03/09 04:10:20;;;;;;;26.20;17.23;;;5.00;99.90;;;;;;5075531;28;20214;-88
2023/03/09 04:12:45;;;;;;;29.43;18.13;;;5.00;99.90;;;;;;5076157;28;20655;-88
2023/03/09 04:15:11;;;;;;;31.07;20.63;;;5.20;99.90;;;;;;5075221;28;20207;-88
2023/03/09 04:17:39;;;;;;;26.80;17.80;;;5.00;99.90;;;;;;5084311;28;20191;-88
2023/03/09 04:20:06;;;;;;;33.53;20.17;;;5.10;99.90;;;;;;5095666;28;20172;-89
2023/03/09 04:22:31;;;;;;;28.67;18.20;;;5.00;99.90;;;;;;5097823;28;20232;-89
2023/03/09 04:24:57;;;;;;;30.13;18.43;;;5.00;99.90;;;;;;5086529;28;20187;-88
2023/03/09 04:27:34;;;;;;;26.37;16.33;;;4.90;99.90;;;;;;5077348;28;20165;-88
2023/03/09 04:29:59;;;;;;;29.67;16.97;;;4.90;99.90;;;;;;5076786;28;20180;-88
2023/03/09 04:32:25;;;;;;;30.27;18.67;;;4.70;99.90;;;;;;5075935;28;20176;-88
2023/03/09 04:34:51;;;;;;;30.73;18.23;;;4.60;99.90;;;;;;5074411;28;20667;-88
2023/03/09 04:37:16;;;;;;;34.13;20.07;;;4.60;99.90;;;;;;5076810;28;20186;-88
2023/03/09 04:39:42;;;;;;;32.03;19.13;;;4.50;99.90;;;;;;5074949;28;20172;-88
2023/03/09 04:42:08;;;;;;;32.13;19.27;;;4.50;99.90;;;;;;5079976;28;20601;-88
2023/03/09 04:44:34;;;;;;;31.47;19.30;;;4.50;99.90;;;;;;5074386;28;20233;-88
2023/03/09 04:46:59;;;;;;;32.67;20.20;;;4.60;99.90;;;;;;5074375;28;20197;-87
2023/03/09 04:49:25;;;;;;;33.13;19.70;;;4.40;99.90;;;;;;5074196;28;20187;-88
2023/03/09 04:51:51;;;;;;;31.00;18.87;;;4.40;99.90;;;;;;5076038;28;20187;-88
2023/03/09 04:54:17;;;;;;;32.07;20.57;;;4.40;99.90;;;;;;5075848;28;20215;-87
2023/03/09 04:56:42;;;;;;;30.20;18.80;;;4.40;99.90;;;;;;5075401;28;20164;-88
2023/03/09 04:59:08;;;;;;;30.53;18.50;;;4.40;99.90;;;;;;5076387;28;20558;-88
2023/03/09 05:01:34;;;;;;;33.00;19.00;;;4.40;99.90;;;;;;5083547;28;20232;-88
2023/03/09 05:03:59;;;;;;;31.53;17.77;;;4.50;99.90;;;;;;5076973;28;20695;-87
2023/03/09 05:06:25;;;;;;;30.80;18.87;;;4.40;99.90;;;;;;5079518;28;20176;-88
2023/03/09 05:08:51;;;;;;;28.80;18.33;;;4.30;99.90;;;;;;5088027;28;20160;-89
2023/03/09 05:11:16;;;;;;;29.97;17.67;;;4.40;99.90;;;;;;5097958;28;20198;-89
2023/03/09 05:13:42;;;;;;;26.33;15.90;;;4.40;99.90;;;;;;5092872;28;20208;-89
2023/03/09 05:16:08;;;;;;;25.43;15.93;;;4.30;99.90;;;;;;5084782;28;20244;-89
2023/03/09 05:18:36;;;;;;;24.47;15.97;;;4.30;99.90;;;;;;5070654;28;20172;-88
2023/03/09 05:21:08;;;;;;;26.43;16.00;;;4.20;99.90;;;;;;5055686;28;20181;-89
2023/03/09 05:23:35;;;;;;;26.73;17.37;;;4.30;99.90;;;;;;5056391;28;20181;-90
2023/03/09 05:26:06;;;;;;;28.90;18.90;;;4.30;99.90;;;;;;5073194;28;20176;-91
2023/03/09 05:28:33;;;;;;;29.10;19.47;;;4.30;99.90;;;;;;5068746;28;20280;-89
2023/03/09 05:31:06;;;;;;;31.27;19.27;;;4.30;99.90;;;;;;5073851;28;20621;-90
2023/03/09 05:33:32;;;;;;;26.83;15.57;;;4.30;99.90;;;;;;5068949;28;20209;-89
2023/03/09 05:35:57;;;;;;;28.70;17.00;;;4.20;99.90;;;;;;5077450;28;20168;-88
2023/03/09 05:38:23;;;;;;;28.23;18.57;;;4.10;99.90;;;;;;5076737;28;20248;-88
2023/03/09 05:40:49;;;;;;;28.97;18.63;;;4.10;99.90;;;;;;5068309;28;20179;-88
2023/03/09 05:43:14;;;;;;;30.17;18.53;;;4.20;99.90;;;;;;5062692;28;20180;-88
2023/03/09 05:45:56;;;;;;;28.97;17.57;;;4.30;99.90;;;;;;5056287;28;20173;-89
2023/03/09 05:48:30;;;;;;;29.03;17.87;;;4.30;99.90;;;;;;5055715;28;20180;-89
2023/03/09 05:50:59;;;;;;;27.17;17.20;;;4.40;99.90;;;;;;5056813;28;20165;-88
2023/03/09 05:53:25;;;;;;;28.60;17.30;;;4.40;99.90;;;;;;5060300;28;20538;-89
2023/03/09 05:55:52;;;;;;;29.93;18.33;;;4.20;99.90;;;;;;5076655;28;20176;-88
2023/03/09 05:58:19;;;;;;;30.83;18.53;;;4.30;99.90;;;;;;5076250;28;20175;-87
2023/03/09 06:00:45;;;;;;;31.53;18.80;;;4.30;99.90;;;;;;5075300;28;20234;-88
2023/03/09 06:03:11;;;;;;;30.70;16.90;;;4.30;99.90;;;;;;5059592;28;20315;-89
2023/03/09 06:05:37;;;;;;;28.50;18.10;;;4.20;99.90;;;;;;5057960;28;20203;-90
2023/03/09 06:08:15;;;;;;;29.63;16.93;;;4.10;99.90;;;;;;5059281;28;20172;-89
2023/03/09 06:10:40;;;;;;;29.23;16.93;;;4.00;99.90;;;;;;5057403;28;20188;-88
2023/03/09 06:13:07;;;;;;;29.77;16.83;;;4.10;99.90;;;;;;5046564;28;20186;-88
2023/03/09 06:15:37;;;;;;;28.83;18.33;;;4.10;99.90;;;;;;5042069;28;20209;-89
2023/03/09 06:18:03;;;;;;;29.63;17.93;;;4.10;99.90;;;;;;5058171;28;20169;-89
2023/03/09 06:20:28;;;;;;;32.77;17.50;;;4.20;99.90;;;;;;5058441;28;20169;-90
2023/03/09 06:22:54;;;;;;;31.33;17.13;;;4.20;99.90;;;;;;5040132;28;20174;-89
2023/03/09 06:25:21;;;;;;;30.77;18.93;;;4.10;99.90;;;;;;5037617;28;20170;-88
2023/03/09 06:27:46;;;;;;;31.37;19.53;;;4.10;99.90;;;;;;5036953;28;20224;-89
2023/03/09 06:30:12;;;;;;;29.17;17.17;;;4.20;99.90;;;;;;5044232;28;20173;-89
2023/03/09 06:32:38;;;;;;;30.10;18.07;;;4.20;99.90;;;;;;5072406;28;20153;-90
2023/03/09 06:35:04;;;;;;;29.23;17.20;;;4.10;99.90;;;;;;5048368;28;20218;-90
2023/03/09 06:37:33;;;;;;;32.27;18.73;;;4.10;99.90;;;;;;5054070;28;20205;-89
2023/03/09 06:40:00;;;;;;;31.87;19.33;;;4.20;99.90;;;;;;5056477;28;20237;-89
2023/03/09 06:42:28;;;;;;;31.67;18.43;;;4.20;99.90;;;;;;5059621;28;20162;-88
2023/03/09 06:44:57;;;;;;;34.07;19.33;;;4.10;99.90;;;;;;5058482;28;20173;-85
2023/03/09 06:47:28;;;;;;;37.53;18.80;;;4.00;99.90;;;;;;5048548;28;20173;-90
2023/03/09 06:50:34;;;;;;;32.40;17.73;;;4.00;99.90;;;;;;5044692;28;20676;-90
2023/03/09 06:53:32;;;;;;;32.77;18.13;;;3.90;99.90;;;;;;5041075;28;20162;-91
2023/03/09 06:56:01;;;;;;;35.00;19.70;;;4.00;99.90;;;;;;5043700;28;20174;-92
2023/03/09 06:58:42;;;;;;;34.33;19.40;;;4.20;99.90;;;;;;5040027;28;20509;-93
2023/03/09 07:01:35;;;;;;;32.33;19.57;;;4.20;99.90;;;;;;5041628;28;20166;-90
2023/03/09 07:07:27;;;;;;;36.23;20.13;;;4.40;99.90;;;;;;5041936;28;20200;-91
2023/03/09 07:10:00;;;;;;;42.70;23.90;;;4.40;99.90;;;;;;5049176;28;20174;-92
2023/03/09 07:12:32;;;;;;;35.23;20.97;;;4.50;99.90;;;;;;5037913;28;20177;-88
2023/03/09 07:15:01;;;;;;;32.23;20.47;;;4.30;99.90;;;;;;5036568;28;20213;-91
2023/03/09 07:17:27;;;;;;;32.00;19.37;;;4.60;99.90;;;;;;5049328;28;20180;-88
2023/03/09 07:19:53;;;;;;;30.73;19.10;;;4.70;99.90;;;;;;5073447;28;20176;-92
2023/03/09 07:22:19;;;;;;;31.93;19.47;;;4.80;99.90;;;;;;5075812;28;20252;-92
2023/03/09 07:24:45;;;;;;;33.17;20.27;;;4.80;99.90;;;;;;5077669;28;20165;-94
2023/03/09 07:27:11;;;;;;;39.30;22.67;;;5.00;99.90;;;;;;5070190;28;20672;-90
2023/03/09 07:29:40;;;;;;;33.03;20.20;;;4.90;99.90;;;;;;5055639;28;20172;-94
2023/03/09 07:32:06;;;;;;;30.97;19.43;;;4.80;99.90;;;;;;5066077;28;20177;-91
2023/03/09 07:34:35;;;;;;;31.07;19.60;;;5.00;99.90;;;;;;5068553;28;20339;-92
2023/03/09 07:37:00;;;;;;;32.53;19.63;;;5.20;99.90;;;;;;5065745;28;20254;-91
2023/03/09 07:39:29;;;;;;;32.80;20.10;;;5.30;99.90;;;;;;5069819;28;20631;-90
2023/03/09 07:41:58;;;;;;;34.97;20.73;;;5.50;99.90;;;;;;5067869;28;20149;-90
2023/03/09 07:44:24;;;;;;;33.27;18.90;;;5.70;99.90;;;;;;5067121;28;20253;-94
2023/03/09 07:46:56;;;;;;;33.00;21.67;;;5.70;99.90;;;;;;5068369;28;20181;-94
2023/03/09 07:49:32;;;;;;;32.30;19.20;;;6.00;99.90;;;;;;5053089;28;20192;-94
2023/03/09 07:52:56;;;;;;;;;;;;;;;;;;;;;
2023/03/09 07:55:53;;;;;;;31.70;19.87;;;5.90;99.90;;;;;;5066344;28;20277;-94
2023/03/09 08:19:50;;;;;;;27.77;18.87;;;6.30;99.90;;;;;;5060492;28;20216;-96
2023/03/09 08:22:18;;;;;;;28.90;17.60;;;6.40;99.90;;;;;;5043110;28;20300;-92
2023/03/09 08:24:46;;;;;;;29.43;18.23;;;6.50;99.90;;;;;;5045723;28;20185;-93
2023/03/09 08:27:14;;;;;;;33.77;18.97;;;6.60;99.90;;;;;;5036726;28;20173;-93
2023/03/09 08:29:39;;;;;;;30.50;19.30;;;6.60;99.90;;;;;;5057568;28;20254;-91
2023/03/09 08:32:09;;;;;;;34.23;19.87;;;6.70;99.90;;;;;;5056435;28;20166;-94
2023/03/09 08:34:38;;;;;;;30.97;19.23;;;6.90;99.90;;;;;;5129255;23;20210;-93
2023/03/09 08:37:11;;;;;;;31.43;19.07;;;6.90;99.90;;;;;;5044363;28;20265;-94
2023/03/09 08:40:13;;;;;;;30.83;18.50;;;6.60;99.90;;;;;;5049873;28;20182;-94
2023/03/09 08:42:39;;;;;;;29.50;17.43;;;6.80;99.90;;;;;;5049806;28;20169;-94
2023/03/09 08:45:07;;;;;;;28.80;19.30;;;7.00;99.90;;;;;;5046941;28;20190;-94
2023/03/09 08:47:33;;;;;;;30.30;18.30;;;7.00;99.90;;;;;;5047118;28;20185;-95
2023/03/09 08:50:03;;;;;;;28.40;18.23;;;7.10;99.90;;;;;;5034948;28;20201;-92
2023/03/09 08:52:34;;;;;;;31.57;18.20;;;7.10;99.90;;;;;;5034734;28;20512;-93
2023/03/09 08:55:05;;;;;;;25.63;17.17;;;7.00;99.90;;;;;;5056641;28;20205;-93
2023/03/09 08:57:31;;;;;;;30.23;17.60;;;7.00;99.90;;;;;;5040962;28;20184;-92
2023/03/09 09:00:21;;;;;;;28.03;17.53;;;6.90;99.90;;;;;;5056258;28;20181;-94
2023/03/09 09:02:47;;;;;;;26.17;17.70;;;7.00;99.90;;;;;;5049856;28;20608;-94
2023/03/09 09:05:14;;;;;;;30.83;18.17;;;6.90;99.90;;;;;;5047111;28;20213;-92
2023/03/09 09:07:40;;;;;;;28.43;18.17;;;7.00;99.90;;;;;;5029528;28;20178;-93
2023/03/09 09:10:07;;;;;;;27.53;18.10;;;7.00;99.90;;;;;;5028796;28;20185;-93
2023/03/09 09:12:37;;;;;;;25.63;16.87;;;7.00;99.90;;;;;;5042385;28;20181;-93
2023/03/09 09:15:10;;;;;;;28.40;18.90;;;7.00;99.90;;;;;;5041812;28;20690;-93
2023/03/09 09:17:36;;;;;;;27.63;17.43;;;7.20;99.90;;;;;;5041283;28;20631;-93
2023/03/09 09:20:07;;;;;;;24.43;15.80;;;7.30;99.90;;;;;;5050077;28;20201;-92
2023/03/09 09:22:33;;;;;;;26.27;16.77;;;7.30;99.90;;;;;;5041038;28;20204;-92
2023/03/09 09:25:01;;;;;;;26.77;17.33;;;7.50;99.90;;;;;;5056155;28;20181;-92
2023/03/09 09:27:28;;;;;;;25.93;17.20;;;7.70;99.90;;;;;;5039318;28;20209;-91
2023/03/09 09:29:56;;;;;;;24.97;16.83;;;7.90;99.90;;;;;;5033840;28;20190;-92
2023/03/09 09:32:22;;;;;;;24.00;16.67;;;7.80;99.90;;;;;;5113752;22;20203;-92
2023/03/09 09:38:46;;;;;;;26.90;16.63;;;8.00;99.90;;;;;;5096925;28;20234;-93
2023/03/09 09:41:52;;;;;;;23.07;15.83;;;8.20;99.90;;;;;;5092797;28;20184;-93
2023/03/09 09:45:10;;;;;;;26.00;15.53;;;8.20;99.90;;;;;;5084455;28;20514;-92
2023/03/09 09:47:37;;;;;;;24.70;16.77;;;8.30;99.90;;;;;;5084755;28;20176;-92
2023/03/09 09:50:05;;;;;;;24.60;16.47;;;8.50;99.90;;;;;;5083815;28;20551;-92
2023/03/09 09:52:58;;;;;;;26.80;17.87;;;8.40;99.90;;;;;;5067948;28;20176;-92
2023/03/09 09:55:28;;;;;;;25.57;17.27;;;8.30;99.90;;;;;;5082631;28;20223;-92
2023/03/09 09:57:53;;;;;;;26.23;18.23;;;8.30;99.90;;;;;;5086085;28;20175;-93
2023/03/09 10:00:31;;;;;;;26.13;16.90;;;8.30;99.90;;;;;;5088526;28;20668;-92
2023/03/09 10:03:12;;;;;;;26.80;18.93;;;8.30;99.90;;;;;;5090877;28;20187;-93
2023/03/09 10:05:54;;;;;;;26.13;17.60;;;8.40;99.90;;;;;;5096277;28;20160;-91
2023/03/09 10:08:46;;;;;;;25.30;17.43;;;8.30;99.90;;;;;;5153781;22;20207;-92
2023/03/09 10:11:32;;;;;;;26.53;17.43;;;8.40;99.90;;;;;;5087786;28;20164;-92
2023/03/09 10:14:38;;;;;;;29.27;18.67;;;8.60;99.90;;;;;;5085953;28;20215;-94
2023/03/09 10:17:31;;;;;;;28.50;18.03;;;8.70;99.90;;;;;;5080122;28;20175;-93
2023/03/09 10:20:10;;;;;;;26.07;16.87;;;8.80;99.90;;;;;;5079385;28;20180;-93
2023/03/09 10:22:40;;;;;;;27.00;18.10;;;8.80;99.90;;;;;;5086537;28;20183;-90
2023/03/09 10:25:16;;;;;;;29.43;18.77;;;9.00;99.90;;;;;;5088002;28;20321;-89
2023/03/09 10:27:49;;;;;;;25.67;18.20;;;8.90;99.90;;;;;;5090051;28;20176;-90
2023/03/09 10:30:29;;;;;;;28.40;19.10;;;8.90;99.90;;;;;;5086439;28;20180;-93
2023/03/09 10:33:38;;;;;;;28.50;18.93;;;8.90;99.90;;;;;;5083624;28;20229;-94
2023/03/09 10:36:31;;;;;;;27.10;18.40;;;9.00;99.90;;;;;;5076684;28;20278;-93
2023/03/09 10:39:10;;;;;;;24.60;18.23;;;9.20;99.90;;;;;;5093425;28;20152;-91
2023/03/09 10:41:37;;;;;;;28.33;19.40;;;9.60;99.90;;;;;;5100084;28;20168;-92
2023/03/09 10:44:14;;;;;;;26.03;18.97;;;9.60;99.90;;;;;;5099588;28;20183;-92
2023/03/09 10:47:00;;;;;;;27.47;19.93;;;9.90;99.90;;;;;;5100005;28;20159;-91
2023/03/09 10:49:29;;;;;;;29.03;19.67;;;9.90;99.90;;;;;;5093178;28;20279;-92
2023/03/09 10:52:18;;;;;;;30.63;19.53;;;10.00;99.90;;;;;;5086732;28;20176;-92
2023/03/09 10:55:22;;;;;;;24.77;18.17;;;10.50;99.90;;;;;;5092316;28;20205;-93
2023/03/09 10:58:26;;;;;;;25.40;17.97;;;10.40;99.90;;;;;;5075646;28;20169;-92
2023/03/09 11:01:23;;;;;;;26.37;18.63;;;10.60;99.90;;;;;;5095936;28;20582;-93
2023/03/09 11:03:50;;;;;;;27.07;19.07;;;10.70;99.90;;;;;;5090469;28;20176;-92
2023/03/09 11:06:50;;;;;;;25.07;18.23;;;10.80;99.90;;;;;;5091024;28;20248;-91
2023/03/09 11:09:52;;;;;;;27.40;18.67;;;10.80;99.90;;;;;;5082509;28;20195;-93
2023/03/09 11:12:23;;;;;;;26.77;18.87;;;10.80;99.90;;;;;;5039716;28;20210;-92
2023/03/09 11:15:19;;;;;;;25.53;17.90;;;10.80;99.90;;;;;;5086011;28;20207;-93
2023/03/09 11:17:46;;;;;;;26.83;18.23;;;10.80;99.90;;;;;;5076504;28;20214;-91
2023/03/09 11:20:12;;;;;;;26.33;18.90;;;10.80;99.90;;;;;;5087229;28;20191;-91
2023/03/09 11:22:42;;;;;;;26.13;19.17;;;10.80;99.90;;;;;;5078581;28;20173;-93
2023/03/09 11:25:19;;;;;;;30.53;20.97;;;10.80;99.90;;;;;;5079101;28;20569;-94
2023/03/09 11:27:53;;;;;;;29.47;22.77;;;10.80;99.90;;;;;;5080499;28;20577;-93
2023/03/09 11:30:22;;;;;;;38.23;28.97;;;10.90;99.90;;;;;;5088941;28;20225;-93
2023/03/09 11:32:53;;;;;;;32.67;24.17;;;10.90;99.90;;;;;;5064296;28;20236;-92
2023/03/09 11:35:22;;;;;;;37.03;26.00;;;10.90;99.90;;;;;;5049300;28;20291;-92
2023/03/09 11:38:04;;;;;;;37.83;25.17;;;11.00;99.90;;;;;;5062255;28;20179;-92
2023/03/09 11:40:33;;;;;;;30.73;21.47;;;11.10;99.90;;;;;;5077384;28;20173;-92
2023/03/09 11:43:05;;;;;;;32.57;23.17;;;11.20;99.90;;;;;;5071068;28;20641;-92
2023/03/09 11:45:35;;;;;;;29.53;20.97;;;11.10;99.90;;;;;;5068671;28;20172;-93
2023/03/09 11:48:04;;;;;;;30.87;21.30;;;11.20;99.90;;;;;;5063265;28;20543;-93
2023/03/09 11:50:40;;;;;;;27.13;20.43;;;11.20;99.90;;;;;;5069179;28;20264;-91
2023/03/09 11:53:17;;;;;;;29.50;20.90;;;11.10;99.90;;;;;;5060343;28;20180;-92
2023/03/09 11:55:48;;;;;;;29.90;19.40;;;11.30;99.90;;;;;;5060833;28;20559;-92
2023/03/09 11:58:29;;;;;;;28.63;19.73;;;11.30;99.90;;;;;;5072234;28;20176;-93
2023/03/09 12:01:30;;;;;;;32.23;18.53;;;11.40;99.90;;;;;;5070696;28;20200;-93
2023/03/09 12:04:07;;;;;;;25.73;15.77;;;11.60;99.90;;;;;;5065280;28;20173;-92
2023/03/09 12:06:51;;;;;;;27.87;16.10;;;11.60;99.90;;;;;;5067417;28;20275;-92
2023/03/09 12:09:53;;;;;;;21.50;13.00;;;11.60;99.90;;;;;;5064893;28;20270;-92
2023/03/09 12:12:55;;;;;;;22.43;10.23;;;11.50;99.90;;;;;;5062876;28;20161;-91
2023/03/09 12:15:50;;;;;;;18.57;8.13;;;11.70;99.90;;;;;;5081413;23;20243;-91
2023/03/09 12:18:37;;;;;;;20.77;6.60;;;11.80;99.90;;;;;;5045389;28;20182;-94
2023/03/09 12:21:09;;;;;;;18.80;5.73;;;12.00;99.90;;;;;;5048276;28;20169;-92
2023/03/09 12:23:37;;;;;;;19.13;5.47;;;11.90;99.90;;;;;;5047729;28;20186;-92
2023/03/09 12:26:29;;;;;;;21.53;5.10;;;12.10;99.90;;;;;;5046016;28;20173;-93
2023/03/09 12:29:24;;;;;;;17.17;4.70;;;12.10;99.90;;;;;;5048350;28;20219;-91
2023/03/09 12:32:16;;;;;;;16.87;5.23;;;12.20;99.90;;;;;;5047481;28;20209;-93
2023/03/09 12:34:44;;;;;;;17.53;5.20;;;12.40;99.90;;;;;;5044909;28;20213;-92
2023/03/09 12:37:45;;;;;;;17.33;4.83;;;12.30;99.90;;;;;;5046645;28;20174;-93
2023/03/09 12:40:24;;;;;;;20.50;5.17;;;12.60;99.90;;;;;;5043244;28;20196;-92
2023/03/09 12:42:54;;;;;;;21.63;4.97;;;12.70;99.90;;;;;;5046678;28;20193;-91
2023/03/09 12:45:20;;;;;;;18.83;4.93;;;12.80;99.90;;;;;;5051415;28;20187;-90
2023/03/09 12:47:58;;;;;;;21.93;4.90;;;12.90;99.90;;;;;;5054872;28;20208;-93
2023/03/09 12:50:41;;;;;;;16.43;4.80;;;13.00;99.90;;;;;;5056584;28;20158;-91
2023/03/09 12:53:22;;;;;;;22.20;5.27;;;13.10;99.90;;;;;;5056682;28;20176;-92
2023/03/09 12:55:52;;;;;;;21.13;4.90;;;13.20;99.90;;;;;;5036063;28;20276;-93
2023/03/09 12:58:33;;;;;;;20.20;5.60;;;13.10;99.90;;;;;;5096276;23;20165;-92
2023/03/09 13:01:10;;;;;;;18.30;4.70;;;13.30;99.90;;;;;;5039394;28;20193;-93
2023/03/09 13:04:02;;;;;;;18.17;4.47;;;13.50;99.90;;;;;;5044482;28;20189;-92
2023/03/09 13:06:50;;;;;;;15.73;4.67;;;13.60;99.90;;;;;;5032861;28;20201;-91
2023/03/09 13:09:36;;;;;;;20.43;5.33;;;13.60;99.90;;;;;;5047634;28;20175;-91
2023/03/09 13:12:05;;;;;;;21.57;5.33;;;13.60;99.90;;;;;;5044609;28;20189;-92
2023/03/09 13:14:46;;;;;;;15.97;4.57;;;13.80;99.90;;;;;;5034016;28;20672;-91
2023/03/09 13:17:27;;;;;;;15.57;4.37;;;13.70;99.90;;;;;;5037554;28;20222;-91
2023/03/09 13:20:21;;;;;;;17.93;4.80;;;13.70;99.90;;;;;;5034785;28;20200;-92
2023/03/09 13:22:50;;;;;;;18.43;4.30;;;13.70;99.90;;;;;;5026595;28;20657;-92
2023/03/09 13:25:33;;;;;;;15.50;4.87;;;13.70;99.90;;;;;;5034696;28;20178;-91
2023/03/09 13:28:21;;;;;;;14.57;4.40;;;13.60;99.90;;;;;;5037079;28;20182;-91
2023/03/09 13:30:50;;;;;;;14.50;4.43;;;13.60;99.90;;;;;;5029900;28;20174;-92
2023/03/09 13:33:28;;;;;;;14.70;4.47;;;13.50;99.90;;;;;;5035607;28;20209;-91
2023/03/09 13:35:58;;;;;;;19.57;3.80;;;13.60;99.90;;;;;;5031735;28;20529;-91